Time;durP1;ratioP1;P1;durP2;ratioP2;P2;SDS_P1;SDS_P2;PMS_P1;PMS_P2;Temp;Humidity;BMP_temperature;BMP_pressure;BME280_temperature;BME280_humidity;BME280_pressure;Samples;Min_cycle;Max_cycle;Signal;HPM_P1;HPM_P2
2021/10/01 00:02:19;;;;;;;13.60;2.45;;;;;;;15.26;79.94;101543.66;5069576;28;20819;-37
2021/10/01 00:04:46;;;;;;;14.93;2.50;;;;;;;15.28;80.17;101526.47;5069682;28;20114;-43
2021/10/01 00:07:17;;;;;;;13.43;2.40;;;;;;;15.29;80.05;101525.34;5070320;28;20040;-39
2021/10/01 00:09:45;;;;;;;8.70;1.92;;;;;;;15.31;79.68;101517.41;5069906;28;20440;-37
2021/10/01 00:12:13;;;;;;;15.88;2.70;;;;;;;15.32;79.91;101505.88;5069142;28;20603;-40
2021/10/01 00:14:41;;;;;;;11.60;2.20;;;;;;;15.32;79.94;101505.03;5070396;28;20068;-41
2021/10/01 00:17:09;;;;;;;13.93;2.92;;;;;;;15.32;80.13;101508.69;5070100;28;20048;-33
2021/10/01 00:19:38;;;;;;;10.60;2.00;;;;;;;15.33;80.28;101507.53;5070321;28;20055;-42
2021/10/01 00:22:06;;;;;;;14.15;2.60;;;;;;;15.35;80.76;101516.47;5070443;28;20080;-36
2021/10/01 00:24:36;;;;;;;11.73;2.45;;;;;;;15.34;80.31;101509.19;5069558;28;20487;-37
2021/10/01 00:27:08;;;;;;;13.35;2.40;;;;;;;15.33;80.44;101515.97;5070179;28;20041;-41
2021/10/01 00:29:36;;;;;;;15.10;2.75;;;;;;;15.33;80.38;101503.88;5070256;28;20072;-40
2021/10/01 00:32:04;;;;;;;11.30;2.35;;;;;;;15.32;80.34;101494.63;5050801;28;20045;-39
2021/10/01 00:34:33;;;;;;;15.88;2.35;;;;;;;15.34;80.24;101485.88;5068987;28;20048;-36
2021/10/01 00:37:00;;;;;;;19.33;3.15;;;;;;;15.33;80.53;101493.47;5070275;28;20445;-38
2021/10/01 00:39:28;;;;;;;13.85;2.30;;;;;;;15.37;80.50;101497.31;5068441;28;20041;-39
2021/10/01 00:41:58;;;;;;;12.07;2.35;;;;;;;15.35;80.39;101494.00;5073823;28;20048;-42
2021/10/01 00:44:25;;;;;;;11.32;2.33;;;;;;;15.35;80.46;101482.75;5071745;28;20033;-38
2021/10/01 00:46:53;;;;;;;11.35;1.98;;;;;;;15.32;80.13;101490.97;5073514;28;20087;-38
2021/10/01 00:49:21;;;;;;;13.95;2.33;;;;;;;15.33;80.28;101476.59;5073351;28;20084;-40
2021/10/01 00:51:51;;;;;;;15.48;2.20;;;;;;;15.31;80.50;101472.44;5073259;28;20079;-43
2021/10/01 00:54:20;;;;;;;10.95;2.55;;;;;;;15.31;80.18;101495.75;5073194;28;20068;-38
2021/10/01 00:56:49;;;;;;;12.95;2.45;;;;;;;15.32;80.51;101489.00;5072473;28;20080;-41
2021/10/01 00:59:18;;;;;;;12.77;2.35;;;;;;;15.33;81.00;101481.38;5071664;28;20143;-37
2021/10/01 01:01:46;;;;;;;11.98;2.38;;;;;;;15.30;80.83;101482.84;5062584;28;20497;-37
2021/10/01 01:04:14;;;;;;;15.98;3.08;;;;;;;15.31;80.96;101473.25;5072864;28;20044;-36
2021/10/01 01:06:47;;;;;;;10.50;1.95;;;;;;;15.31;80.74;101473.25;5071420;28;20135;-36
2021/10/01 01:09:37;;;;;;;10.05;2.13;;;;;;;15.31;80.33;101492.94;5071770;28;20143;-39
2021/10/01 01:12:22;;;;;;;12.88;2.50;;;;;;;15.35;80.68;101473.47;5072279;28;20288;-40
2021/10/01 01:14:58;;;;;;;15.57;2.65;;;;;;;15.32;81.36;101474.94;5071607;28;20048;-38
2021/10/01 01:17:30;;;;;;;8.10;2.15;;;;;;;15.32;81.26;101469.31;5072298;28;20131;-41
2021/10/01 01:20:05;;;;;;;11.15;2.30;;;;;;;15.33;81.49;101487.00;5071193;28;20425;-38
2021/10/01 01:22:41;;;;;;;19.95;2.53;;;;;;;15.32;81.71;101460.88;5061897;28;20131;-40
2021/10/01 01:25:51;;;;;;;14.18;2.45;;;;;;;15.31;81.79;101469.63;5071395;28;20067;-38
2021/10/01 01:28:34;;;;;;;16.70;3.15;;;;;;;15.29;82.19;101464.31;5067241;28;20127;-41
2021/10/01 01:31:06;;;;;;;12.07;2.22;;;;;;;15.30;82.49;101457.53;5071319;28;20071;-41
2021/10/01 01:33:39;;;;;;;11.40;2.60;;;;;;;15.34;82.50;101452.13;5072414;28;20466;-41
2021/10/01 01:36:13;;;;;;;19.77;3.47;;;;;;;15.31;82.61;101439.53;5072809;28;20040;-40
2021/10/01 01:38:45;;;;;;;13.88;2.30;;;;;;;15.30;82.43;101448.28;5071647;28;20497;-32
2021/10/01 01:41:14;;;;;;;13.93;2.58;;;;;;;15.30;82.40;101439.84;5070723;28;20135;-41
2021/10/01 01:43:43;;;;;;;13.35;2.00;;;;;;;15.32;82.35;101434.72;5072920;28;20079;-40
2021/10/01 01:46:11;;;;;;;9.13;2.47;;;;;;;15.28;82.86;101434.53;5070822;28;20444;-33
2021/10/01 01:48:42;;;;;;;11.10;2.20;;;;;;;15.32;82.60;101435.56;5071030;28;20048;-38
2021/10/01 01:51:12;;;;;;;13.32;2.35;;;;;;;15.34;82.86;101438.88;5070856;28;20056;-35
2021/10/01 01:53:41;;;;;;;10.70;2.60;;;;;;;15.31;83.61;101422.66;5071332;28;20056;-32
2021/10/01 01:56:11;;;;;;;12.02;2.60;;;;;;;15.35;83.70;101428.47;5071577;28;20066;-44
2021/10/01 01:58:41;;;;;;;13.93;2.72;;;;;;;15.33;84.01;101423.16;5072406;28;20135;-38
2021/10/01 02:01:22;;;;;;;14.98;2.92;;;;;;;15.35;84.22;101422.84;5070904;28;20068;-36
2021/10/01 02:04:14;;;;;;;13.18;2.75;;;;;;;15.33;84.87;101417.53;5063126;28;20048;-40
2021/10/01 02:06:44;;;;;;;9.45;2.08;;;;;;;15.33;85.26;101413.91;5070439;28;20409;-38
2021/10/01 02:09:13;;;;;;;15.20;2.75;;;;;;;15.37;85.74;101406.50;5070104;28;20053;-36
2021/10/01 02:11:43;;;;;;;15.65;2.75;;;;;;;15.37;85.39;101398.88;5070538;28;20048;-37
2021/10/01 02:14:15;;;;;;;12.60;2.67;;;;;;;15.35;85.49;101381.50;5070853;28;20486;-39
2021/10/01 02:16:44;;;;;;;17.02;2.58;;;;;;;15.37;85.54;101398.06;5069946;28;20044;-38
2021/10/01 02:19:14;;;;;;;10.20;2.03;;;;;;;15.37;85.47;101393.25;5071754;28;20056;-38
2021/10/01 02:21:44;;;;;;;13.57;2.40;;;;;;;15.35;85.76;101384.31;5070075;28;20033;-41
2021/10/01 02:24:12;;;;;;;16.02;2.50;;;;;;;15.37;86.19;101393.25;5070063;28;20053;-43
2021/10/01 02:26:51;;;;;;;15.73;2.58;;;;;;;15.38;86.01;101377.22;5070579;28;20455;-36
2021/10/01 02:29:25;;;;;;;14.52;2.85;;;;;;;15.36;86.37;101379.53;5070601;28;20051;-37
2021/10/01 02:31:58;;;;;;;14.38;2.63;;;;;;;15.36;86.30;101359.84;5069505;28;20044;-36
2021/10/01 02:34:35;;;;;;;12.80;2.38;;;;;;;15.35;86.19;101364.63;5072021;28;20041;-38
2021/10/01 02:37:10;;;;;;;10.38;2.05;;;;;;;15.29;85.83;101368.69;5069699;28;20056;-36
2021/10/01 02:39:44;;;;;;;11.03;2.03;;;;;;;15.28;85.16;101377.47;5070627;28;20044;-40
2021/10/01 02:42:13;;;;;;;10.55;2.53;;;;;;;15.26;85.37;101369.34;5069799;28;20063;-40
2021/10/01 02:44:43;;;;;;;15.18;2.35;;;;;;;15.27;85.56;101359.75;5069437;28;20044;-37
2021/10/01 02:47:12;;;;;;;11.07;1.77;;;;;;;15.27;85.49;101348.50;5070280;28;20044;-38
2021/10/01 02:49:43;;;;;;;9.05;2.28;;;;;;;15.25;85.31;101335.91;5070022;28;20040;-38
2021/10/01 02:52:18;;;;;;;12.30;2.13;;;;;;;15.22;85.29;101331.75;5069488;28;20079;-35
2021/10/01 02:54:53;;;;;;;11.45;2.08;;;;;;;15.22;85.45;101334.56;5069987;28;20067;-37
2021/10/01 02:57:23;;;;;;;17.65;2.30;;;;;;;15.19;85.68;101346.44;5070999;28;20053;-37
2021/10/01 02:59:54;;;;;;;12.70;2.03;;;;;;;15.19;86.10;101345.66;5069421;28;20105;-34
2021/10/01 03:02:23;;;;;;;12.50;3.47;;;;;;;15.18;85.74;101327.94;5069636;28;20498;-41
2021/10/01 03:04:56;;;;;;;14.35;2.50;;;;;;;15.19;85.38;101337.22;5070415;28;20037;-37
2021/10/01 03:07:27;;;;;;;12.60;2.60;;;;;;;15.17;85.91;101337.53;5069824;28;20415;-40
2021/10/01 03:09:57;;;;;;;10.13;2.00;;;;;;;15.18;85.81;101329.94;5069702;28;20055;-35
2021/10/01 03:12:27;;;;;;;11.95;2.20;;;;;;;15.19;85.53;101317.53;5069443;28;20044;-37
2021/10/01 03:14:55;;;;;;;12.35;1.88;;;;;;;15.19;85.57;101332.38;5069726;28;20047;-43
2021/10/01 03:17:25;;;;;;;9.30;1.80;;;;;;;15.24;85.55;101337.88;5069502;28;20056;-35
2021/10/01 03:19:55;;;;;;;13.68;2.20;;;;;;;15.23;85.57;101329.78;5068701;28;20501;-42
2021/10/01 03:22:27;;;;;;;13.55;2.25;;;;;;;15.21;85.07;101324.47;5070031;28;20048;-40
2021/10/01 03:24:55;;;;;;;9.18;2.20;;;;;;;15.24;85.54;101315.41;5069560;28;20127;-36
2021/10/01 03:27:24;;;;;;;12.55;2.33;;;;;;;15.24;85.36;101315.41;5070650;28;20044;-41
2021/10/01 03:29:52;;;;;;;10.18;2.03;;;;;;;15.27;85.33;101313.94;5070468;28;20045;-39
2021/10/01 03:32:22;;;;;;;11.93;2.25;;;;;;;15.25;85.48;101310.59;5069647;28;20052;-39
2021/10/01 03:34:51;;;;;;;9.07;1.70;;;;;;;15.23;84.94;101304.47;5069208;28;20386;-40
2021/10/01 03:37:21;;;;;;;8.48;1.67;;;;;;;15.21;85.10;101324.47;5071110;28;20087;-41
2021/10/01 03:40:02;;;;;;;14.52;2.58;;;;;;;15.22;85.69;101312.06;5069425;28;20051;-40
2021/10/01 03:42:31;;;;;;;15.70;2.35;;;;;;;15.22;85.66;101309.25;5069757;28;20040;-37
2021/10/01 03:44:58;;;;;;;10.05;2.20;;;;;;;15.26;85.32;101290.59;5068856;28;20178;-43
2021/10/01 03:47:26;;;;;;;11.77;2.85;;;;;;;15.22;85.92;101300.81;5069356;28;20106;-40
2021/10/01 03:49:54;;;;;;;11.18;2.00;;;;;;;15.22;85.92;101300.81;5070644;28;20401;-40
2021/10/01 03:52:23;;;;;;;9.10;1.90;;;;;;;15.25;85.89;101310.59;5070840;28;20048;-40
2021/10/01 03:54:52;;;;;;;11.38;2.55;;;;;;;15.24;86.23;101303.31;5068492;28;20052;-39
2021/10/01 03:57:20;;;;;;;9.98;2.03;;;;;;;15.24;86.30;101306.13;5069293;28;20055;-38
2021/10/01 03:59:49;;;;;;;10.27;1.98;;;;;;;15.23;86.07;101282.81;5069509;28;20135;-38
2021/10/01 04:02:16;;;;;;;10.63;2.00;;;;;;;15.23;86.23;101288.44;5069974;28;20040;-41
2021/10/01 04:04:44;;;;;;;11.88;1.95;;;;;;;15.23;86.32;101299.69;5069210;28;20047;-39
2021/10/01 04:07:12;;;;;;;13.23;2.40;;;;;;;15.19;86.33;101295.03;5069076;28;20076;-38
2021/10/01 04:09:42;;;;;;;16.40;2.65;;;;;;;15.18;86.40;101294.22;5069640;28;20041;-36
2021/10/01 04:12:10;;;;;;;11.93;2.50;;;;;;;15.13;86.41;101286.72;5069405;28;20048;-36
2021/10/01 04:14:38;;;;;;;8.88;2.05;;;;;;;15.07;86.16;101296.44;5070870;28;20413;-39
2021/10/01 04:17:06;;;;;;;7.47;1.92;;;;;;;15.04;85.92;101283.00;5072413;28;20052;-40
2021/10/01 04:19:34;;;;;;;12.13;2.30;;;;;;;15.03;86.14;101278.53;5072834;28;20044;-41
2021/10/01 04:22:05;;;;;;;10.88;1.70;;;;;;;15.02;85.95;101287.28;5069677;28;20079;-39
2021/10/01 04:24:54;;;;;;;9.52;2.03;;;;;;;15.00;85.94;101292.38;5073745;28;20139;-39
2021/10/01 04:27:22;;;;;;;9.07;2.08;;;;;;;14.96;85.74;101280.16;5074003;28;20116;-36
2021/10/01 04:29:50;;;;;;;12.73;1.90;;;;;;;14.95;85.68;101282.13;5072225;28;20102;-41
2021/10/01 04:32:19;;;;;;;9.60;1.85;;;;;;;14.91;85.63;101280.25;5072292;28;20086;-36
2021/10/01 04:34:59;;;;;;;6.90;1.55;;;;;;;14.86;85.76;101255.09;5069459;28;20499;-39
2021/10/01 04:37:27;;;;;;;7.90;1.58;;;;;;;14.83;85.61;101257.38;5072639;28;20079;-39
2021/10/01 04:39:59;;;;;;;12.45;1.90;;;;;;;14.82;85.82;101266.13;5071857;28;20110;-36
2021/10/01 04:42:28;;;;;;;9.25;1.92;;;;;;;14.76;85.68;101265.44;5071042;28;20121;-33
2021/10/01 04:44:56;;;;;;;8.95;1.90;;;;;;;14.72;85.67;101266.38;5071759;28;20040;-40
2021/10/01 04:47:24;;;;;;;7.80;1.73;;;;;;;14.70;nan;101260.25;5071849;28;20159;-38
2021/10/01 04:49:52;;;;;;;9.57;2.08;;;;;;;14.69;85.73;101265.03;5072214;28;20050;-43
2021/10/01 04:52:19;;;;;;;10.98;1.98;;;;;;;14.67;85.96;101270.13;5071488;28;20090;-38
2021/10/01 04:54:47;;;;;;;10.73;1.83;;;;;;;14.67;85.91;101264.53;5072526;28;20438;-37
2021/10/01 04:57:17;;;;;;;7.22;1.70;;;;;;;14.66;85.83;101254.44;5071666;28;20048;-37
2021/10/01 05:00:05;;;;;;;8.30;1.55;;;;;;;14.63;86.04;101259.84;5073342;28;20067;-38
2021/10/01 05:02:51;;;;;;;10.63;2.00;;;;;;;14.57;85.97;101250.72;5073070;28;20055;-40
2021/10/01 05:05:25;;;;;;;6.40;1.45;;;;;;;14.58;85.82;101246.78;5071718;28;20664;-41
2021/10/01 05:08:13;;;;;;;8.07;2.08;;;;;;;14.53;85.50;101252.50;5072816;28;20059;-42
2021/10/01 05:10:59;;;;;;;8.75;1.58;;;;;;;14.47;85.13;101267.81;5073599;28;20244;-37
2021/10/01 05:13:51;;;;;;;7.78;1.92;;;;;;;14.44;85.12;101263.66;5072683;28;20516;-34
2021/10/01 05:16:37;;;;;;;8.18;1.70;;;;;;;14.40;85.06;101256.13;5055906;28;20099;-35
2021/10/01 05:19:23;;;;;;;6.60;1.50;;;;;;;14.38;84.80;101264.06;5070250;28;20059;-39
2021/10/01 05:22:26;;;;;;;10.98;1.88;;;;;;;14.32;85.20;101262.50;5068837;28;20051;-35
2021/10/01 05:24:54;;;;;;;7.72;1.60;;;;;;;14.33;85.54;101262.19;5071293;28;20049;-41
2021/10/01 05:27:22;;;;;;;8.40;1.40;;;;;;;14.33;85.48;101262.19;5070457;28;20390;-34
2021/10/01 05:29:51;;;;;;;7.22;1.70;;;;;;;14.34;85.43;101255.44;5072758;28;20056;-37
2021/10/01 05:32:19;;;;;;;8.40;1.80;;;;;;;14.32;85.33;101262.50;5069858;28;20040;-36
2021/10/01 05:34:47;;;;;;;8.35;2.00;;;;;;;14.31;85.55;101253.25;5070275;28;20084;-35
2021/10/01 05:37:16;;;;;;;8.80;1.90;;;;;;;14.32;85.46;101254.09;5072317;28;20074;-40
2021/10/01 05:39:44;;;;;;;8.85;2.05;;;;;;;14.32;85.55;101256.88;5069200;28;20044;-40
2021/10/01 05:42:13;;;;;;;8.15;1.90;;;;;;;14.29;nan;101252.72;5071579;28;20072;-35
2021/10/01 05:44:42;;;;;;;3.97;1.08;;;;;;;14.32;85.20;101248.47;5070049;28;20051;-41
2021/10/01 05:47:31;;;;;;;7.10;1.38;;;;;;;14.28;85.05;101253.88;5071037;28;20493;-36
2021/10/01 05:50:19;;;;;;;5.78;1.60;;;;;;;14.20;84.60;101245.34;5070629;28;20052;-40
2021/10/01 05:53:14;;;;;;;7.10;1.60;;;;;;;14.12;84.40;101247.78;5060344;28;20444;-38
2021/10/01 05:56:08;;;;;;;5.72;1.20;;;;;;;14.05;83.98;101249.31;5055961;28;20138;-37
2021/10/01 05:58:54;;;;;;;5.57;1.35;;;;;;;13.89;83.68;101239.56;5071892;28;20054;-35
2021/10/01 06:01:22;;;;;;;6.03;1.50;;;;;;;13.83;83.81;101247.25;5069986;28;20497;-38
2021/10/01 06:03:52;;;;;;;3.85;1.30;;;;;;;13.77;83.91;101231.69;5070191;28;20147;-44
2021/10/01 06:06:20;;;;;;;6.22;1.50;;;;;;;13.70;84.23;101231.25;5071426;28;20055;-35
2021/10/01 06:08:48;;;;;;;4.70;1.40;;;;;;;13.66;84.10;101221.81;5070793;28;20139;-34
2021/10/01 06:11:16;;;;;;;7.10;1.48;;;;;;;13.60;84.28;101225.84;5070813;28;20498;-35
2021/10/01 06:13:44;;;;;;;4.85;1.25;;;;;;;13.56;84.45;101233.25;5072351;28;20056;-39
2021/10/01 06:16:11;;;;;;;3.53;1.13;;;;;;;13.49;84.49;101230.00;5071162;28;20600;-39
2021/10/01 06:18:39;;;;;;;5.05;1.63;;;;;;;13.47;84.51;101221.06;5071870;28;20158;-39
2021/10/01 06:21:09;;;;;;;4.75;1.30;;;;;;;13.41;84.55;101212.75;5070037;28;20106;-39
2021/10/01 06:23:36;;;;;;;5.35;1.33;;;;;;;13.38;84.61;101210.59;5070516;28;20076;-44
2021/10/01 06:26:06;;;;;;;5.03;1.30;;;;;;;13.38;84.58;101218.16;5071069;28;20040;-36
2021/10/01 06:28:34;;;;;;;6.72;1.30;;;;;;;13.35;84.30;101214.00;5071236;28;20045;-39
2021/10/01 06:31:02;;;;;;;3.95;1.30;;;;;;;13.34;84.31;101212.34;5070117;28;20105;-42
2021/10/01 06:33:31;;;;;;;4.30;1.20;;;;;;;13.31;84.02;101212.13;5071135;28;20131;-36
2021/10/01 06:35:59;;;;;;;6.22;1.38;;;;;;;13.29;83.88;101214.41;5070479;28;20040;-41
2021/10/01 06:38:29;;;;;;;4.75;1.40;;;;;;;13.21;83.65;101207.53;5070904;28;20125;-39
2021/10/01 06:40:57;;;;;;;5.45;1.40;;;;;;;13.20;83.23;101205.03;5071254;28;20118;-35
2021/10/01 06:43:25;;;;;;;6.25;1.38;;;;;;;13.20;83.74;101210.63;5071303;28;20072;-38
2021/10/01 06:45:55;;;;;;;4.85;1.48;;;;;;;13.22;83.69;101208.34;5070921;28;20036;-40
2021/10/01 06:48:31;;;;;;;6.03;1.55;;;;;;;13.20;83.67;101200.25;5071483;28;20045;-42
2021/10/01 07:21:55;;;;;;;4.30;1.30;;;;;;;13.45;84.14;101213.78;5053212;28;20040;-43
2021/10/01 07:36:10;;;;;;;4.88;1.40;;;;;;;13.90;83.22;101208.41;5070973;28;20052;-36
2021/10/01 08:20:26;;;;;;;4.80;1.40;;;;;;;14.45;83.61;101192.28;5030591;28;20049;-42
2021/10/01 08:22:54;;;;;;;5.97;1.17;;;;;;;14.51;83.41;101193.00;5073479;28;20040;-37
2021/10/01 08:25:22;;;;;;;3.28;0.98;;;;;;;14.54;83.37;101195.19;5073910;28;20109;-42
2021/10/01 08:27:50;;;;;;;5.53;1.25;;;;;;;14.53;83.18;101187.91;5074038;28;20139;-36
2021/10/01 08:30:17;;;;;;;5.00;1.52;;;;;;;14.55;83.03;101191.25;5069719;28;20045;-39
2021/10/01 08:32:48;;;;;;;5.32;1.40;;;;;;;14.58;83.36;101190.59;5074092;28;20076;-38
2021/10/01 08:35:21;;;;;;;5.28;1.17;;;;;;;14.60;83.32;101185.47;5073709;28;20135;-39
2021/10/01 08:37:49;;;;;;;5.15;1.23;;;;;;;14.60;83.46;101182.66;5073859;28;20136;-40
2021/10/01 08:40:17;;;;;;;4.10;1.27;;;;;;;14.59;83.88;101189.44;5073548;28;20056;-36
2021/10/01 08:42:48;;;;;;;6.18;1.63;;;;;;;14.61;84.54;101184.31;5071949;28;20052;-42
2021/10/01 08:45:20;;;;;;;4.70;1.58;;;;;;;14.62;84.92;101197.22;5073308;28;20521;-41
2021/10/01 08:47:50;;;;;;;5.78;1.30;;;;;;;14.59;86.03;101208.28;5073875;28;20049;-42
2021/10/01 08:50:20;;;;;;;7.47;1.83;;;;;;;14.50;87.66;101211.00;5071594;28;20110;-40
2021/10/01 08:52:49;;;;;;;5.57;1.42;;;;;;;14.45;88.57;101214.75;5072504;28;20052;-41
2021/10/01 08:55:18;;;;;;;7.60;1.67;;;;;;;14.38;90.37;101217.16;5073279;28;20090;-42
2021/10/01 08:57:46;;;;;;;6.15;1.60;;;;;;;14.32;91.01;101210.00;5073203;28;20375;-43
2021/10/01 09:00:16;;;;;;;6.65;2.45;;;;;;;14.28;91.88;101213.75;5072758;28;20123;-37
2021/10/01 09:02:44;;;;;;;9.30;2.15;;;;;;;14.25;92.68;101222.78;5072996;28;20098;-39
2021/10/01 09:05:14;;;;;;;4.97;1.42;;;;;;;14.25;92.84;101211.56;5072504;28;20057;-36
2021/10/01 09:07:42;;;;;;;5.97;1.80;;;;;;;14.24;93.18;101213.53;5073322;28;20053;-35
2021/10/01 09:10:12;;;;;;;6.05;1.50;;;;;;;14.26;93.37;101214.06;5072905;28;20048;-39
2021/10/01 09:12:40;;;;;;;5.90;1.52;;;;;;;14.18;94.75;101226.03;5069584;28;20037;-37
2021/10/01 09:15:09;;;;;;;7.55;1.98;;;;;;;14.14;94.48;101217.41;5073433;28;20155;-42
2021/10/01 09:17:51;;;;;;;7.80;1.63;;;;;;;14.09;95.21;101217.53;5071507;28;20136;-32
2021/10/01 09:20:24;;;;;;;4.53;1.60;;;;;;;14.10;95.34;101218.34;5072928;28;20049;-38
2021/10/01 09:23:14;;;;;;;6.50;1.75;;;;;;;14.09;95.82;101223.13;5069014;28;20148;-35
2021/10/01 09:25:42;;;;;;;5.80;1.50;;;;;;;14.09;95.80;101209.09;5072352;28;20045;-40
2021/10/01 09:28:12;;;;;;;5.13;1.42;;;;;;;14.10;95.85;101204.31;5072921;28;20044;-41
2021/10/01 09:30:44;;;;;;;4.80;1.20;;;;;;;14.12;95.71;101208.47;5073037;28;20036;-38
2021/10/01 09:33:13;;;;;;;;;;;;;;;14.11;96.19;101198.41;5071667;28;20058;-39
2021/10/01 09:35:44;;;;;;;7.30;1.67;;;;;;;14.16;96.13;101194.66;5072827;28;19924;-36
2021/10/01 09:38:14;;;;;;;5.03;1.30;;;;;;;14.27;95.52;101189.63;5072888;28;20561;-42
2021/10/01 09:40:45;;;;;;;4.30;1.30;;;;;;;14.32;95.24;101187.53;5072046;28;20123;-39
2021/10/01 09:43:28;;;;;;;4.05;1.25;;;;;;;14.34;94.85;101184.41;5072450;28;20088;-38
2021/10/01 09:46:04;;;;;;;5.50;1.70;;;;;;;14.37;95.06;101179.00;5072078;28;20051;-38
2021/10/01 09:48:35;;;;;;;3.50;1.30;;;;;;;14.42;94.67;101180.88;5072384;28;20075;-39
2021/10/01 09:51:10;;;;;;;7.65;1.80;;;;;;;14.45;94.42;101185.84;5072519;28;20044;-36
2021/10/01 09:53:45;;;;;;;4.22;1.42;;;;;;;14.47;94.35;101183.56;5071606;28;20044;-42
2021/10/01 09:56:23;;;;;;;4.93;1.58;;;;;;;14.47;94.32;101183.56;5072391;28;20175;-37
2021/10/01 09:59:13;;;;;;;6.85;1.67;;;;;;;14.50;94.28;101182.09;5071252;28;20049;-39
2021/10/01 10:02:05;;;;;;;4.20;1.48;;;;;;;14.42;94.05;101184.50;5070500;28;20480;-41
2021/10/01 10:04:36;;;;;;;4.85;1.73;;;;;;;14.37;94.52;101181.81;5072449;28;20048;-34
2021/10/01 10:07:14;;;;;;;7.40;1.65;;;;;;;14.40;94.44;101169.94;5071510;28;20057;-39
2021/10/01 10:09:44;;;;;;;6.90;1.95;;;;;;;14.43;94.43;101165.69;5069689;28;20048;-40
2021/10/01 10:12:16;;;;;;;7.28;2.10;;;;;;;14.47;94.52;101167.53;5071405;28;20499;-38
2021/10/01 10:14:50;;;;;;;5.27;1.60;;;;;;;14.51;94.86;101169.72;5067586;28;20045;-34
2021/10/01 10:17:20;;;;;;;7.50;1.60;;;;;;;14.56;95.33;101178.03;5071861;28;20052;-35
2021/10/01 10:19:50;;;;;;;7.93;2.63;;;;;;;14.52;96.59;101171.38;5071229;28;20167;-42
2021/10/01 10:22:20;;;;;;;5.68;1.35;;;;;;;14.51;96.62;101169.72;5071237;28;20072;-44
2021/10/01 10:24:49;;;;;;;7.68;1.58;;;;;;;14.49;97.80;101161.59;5071433;28;20131;-42
2021/10/01 10:27:18;;;;;;;7.13;1.75;;;;;;;14.52;98.26;101175.03;5071425;28;20095;-38
2021/10/01 10:29:47;;;;;;;5.72;1.55;;;;;;;14.54;98.71;101171.91;5069606;28;20429;-37
2021/10/01 10:32:23;;;;;;;4.07;1.80;;;;;;;14.51;99.49;101172.53;5070896;28;20502;-40
2021/10/01 10:34:53;;;;;;;6.05;1.88;;;;;;;14.45;99.96;101169.00;5070725;28;20094;-39
2021/10/01 10:37:34;;;;;;;5.15;1.75;;;;;;;14.43;100.00;101160.91;5070515;28;20064;-44
2021/10/01 10:40:06;;;;;;;3.77;1.60;;;;;;;14.42;100.00;101175.25;5068260;28;20143;-42
2021/10/01 10:42:37;;;;;;;6.47;1.40;;;;;;;14.44;100.00;101181.38;5070290;28;20318;-41
2021/10/01 10:45:20;;;;;;;7.25;1.90;;;;;;;14.46;100.00;101174.31;5070546;28;20043;-41
2021/10/01 10:47:51;;;;;;;7.20;1.70;;;;;;;14.45;100.00;101167.03;5054814;28;20079;-38
2021/10/01 10:50:46;;;;;;;4.03;1.70;;;;;;;14.48;100.00;101169.19;5066837;28;20044;-37
2021/10/01 10:53:28;;;;;;;5.95;1.90;;;;;;;14.46;100.00;101171.50;5070286;28;20079;-40
2021/10/01 10:56:06;;;;;;;4.30;1.40;;;;;;;14.43;100.00;101158.09;5069309;28;20059;-44
2021/10/01 10:58:43;;;;;;;4.53;1.58;;;;;;;14.41;100.00;101168.81;5070630;28;20052;-40
2021/10/01 11:01:25;;;;;;;4.63;1.88;;;;;;;14.38;100.00;101168.59;5070687;28;20079;-39
2021/10/01 11:04:20;;;;;;;5.15;1.80;;;;;;;14.34;100.00;101167.56;5066715;28;20044;-34
2021/10/01 11:06:49;;;;;;;6.32;1.80;;;;;;;14.30;100.00;101172.16;5069454;28;20529;-41
2021/10/01 11:09:35;;;;;;;5.40;1.85;;;;;;;14.32;100.00;101169.88;5070135;28;20075;-41
2021/10/01 11:12:25;;;;;;;6.07;1.90;;;;;;;14.26;100.00;101169.13;5070067;28;20060;-40
2021/10/01 11:15:13;;;;;;;3.15;1.60;;;;;;;14.24;100.00;101171.44;5069486;28;20052;-39
2021/10/01 11:17:42;;;;;;;3.53;1.83;;;;;;;14.20;100.00;101175.19;5068719;28;20056;-39
2021/10/01 11:20:37;;;;;;;5.00;1.70;;;;;;;14.20;100.00;101169.56;5067393;28;20105;-37
2021/10/01 11:23:16;;;;;;;5.45;1.58;;;;;;;14.18;100.00;101180.31;5069490;28;20516;-39
2021/10/01 11:25:47;;;;;;;4.13;1.63;;;;;;;14.16;100.00;101172.19;5068303;28;20051;-40
2021/10/01 11:28:15;;;;;;;3.60;1.52;;;;;;;14.13;100.00;101170.84;5070167;28;20079;-38
2021/10/01 11:30:52;;;;;;;5.65;1.80;;;;;;;14.16;100.00;101163.78;5070060;28;20049;-40
2021/10/01 11:33:21;;;;;;;4.10;1.70;;;;;;;14.19;100.00;101162.31;5069371;28;20056;-41
2021/10/01 11:35:54;;;;;;;3.55;1.60;;;;;;;14.18;100.00;101160.66;5069501;28;20072;-39
2021/10/01 11:38:27;;;;;;;7.78;1.90;;;;;;;14.20;100.00;101149.91;5069713;28;20048;-39
2021/10/01 11:41:09;;;;;;;5.05;1.65;;;;;;;14.19;100.00;101149.09;5069685;28;20056;-44
2021/10/01 11:43:52;;;;;;;3.95;1.50;;;;;;;14.18;100.00;101153.06;5070117;28;20044;-43
2021/10/01 11:46:33;;;;;;;3.97;1.60;;;;;;;14.17;100.00;101151.41;5069118;28;20072;-44
2021/10/01 11:49:03;;;;;;;4.43;1.50;;;;;;;14.14;100.00;101149.22;5070503;28;20076;-36
2021/10/01 11:51:31;;;;;;;4.55;1.65;;;;;;;14.13;100.00;101142.78;5070395;28;20054;-37
2021/10/01 11:54:11;;;;;;;3.83;1.77;;;;;;;14.16;100.00;101144.13;5070251;28;20401;-44
2021/10/01 11:56:42;;;;;;;3.33;1.55;;;;;;;14.17;100.00;101142.16;5068436;28;20355;-39
2021/10/01 11:59:10;;;;;;;4.80;1.63;;;;;;;14.17;100.00;101136.53;5069076;28;20106;-37
2021/10/01 12:01:38;;;;;;;3.03;1.50;;;;;;;14.18;100.00;101130.63;5067908;28;20041;-42
2021/10/01 12:04:06;;;;;;;4.13;1.63;;;;;;;14.18;100.00;101126.97;5069857;28;20136;-38
2021/10/01 12:06:36;;;;;;;4.68;1.90;;;;;;;14.17;100.00;101133.75;5068743;28;20052;-40
2021/10/01 12:09:07;;;;;;;4.82;1.90;;;;;;;14.14;100.00;101141.63;5069703;28;20444;-42
2021/10/01 12:11:38;;;;;;;4.05;1.70;;;;;;;14.16;100.00;101127.28;5069371;28;20048;-41
2021/10/01 12:14:15;;;;;;;3.10;1.73;;;;;;;14.20;100.00;101110.63;5069873;28;20076;-42
2021/10/01 12:16:55;;;;;;;4.07;1.98;;;;;;;14.23;100.00;101130.47;5070097;28;20543;-40
2021/10/01 12:19:24;;;;;;;3.25;1.77;;;;;;;14.21;100.00;101121.53;5060133;28;20045;-43
2021/10/01 12:22:03;;;;;;;4.30;1.70;;;;;;;14.27;100.00;101125.06;5069450;28;20055;-40
2021/10/01 12:24:42;;;;;;;5.00;2.20;;;;;;;14.30;100.00;101118.81;5059711;28;20144;-39
2021/10/01 12:27:09;;;;;;;4.93;2.17;;;;;;;14.32;100.00;101114.53;5070115;28;20047;-42
2021/10/01 12:29:45;;;;;;;4.38;1.83;;;;;;;14.40;100.00;101133.44;5069651;28;20053;-40
2021/10/01 12:32:13;;;;;;;3.63;2.03;;;;;;;14.42;100.00;101119.09;5070229;28;20132;-39
2021/10/01 12:34:48;;;;;;;3.95;1.98;;;;;;;14.41;100.00;101123.88;5069640;28;20493;-38
2021/10/01 12:37:21;;;;;;;4.63;2.08;;;;;;;14.42;100.00;101119.09;5073350;28;20428;-38
2021/10/01 12:39:51;;;;;;;6.20;2.10;;;;;;;14.44;100.00;101128.88;5073998;28;20131;-37
2021/10/01 12:42:24;;;;;;;3.33;1.77;;;;;;;14.44;100.00;101128.03;5072780;28;20076;-44
2021/10/01 12:45:03;;;;;;;5.03;2.30;;;;;;;14.45;100.00;101113.69;5073557;28;20052;-40
2021/10/01 12:47:34;;;;;;;4.07;2.40;;;;;;;14.43;100.00;101112.34;5073621;28;20048;-39
2021/10/01 12:50:05;;;;;;;5.50;2.30;;;;;;;14.44;100.00;101116.81;5073100;28;20049;-41
2021/10/01 12:52:34;;;;;;;4.00;2.33;;;;;;;14.43;100.00;101115.97;5073392;28;20052;-43
2021/10/01 12:55:05;;;;;;;3.83;2.22;;;;;;;14.44;100.00;101114.81;5073401;28;20138;-38
2021/10/01 12:57:35;;;;;;;3.58;2.50;;;;;;;14.45;100.00;101115.66;5073053;28;20070;-41
2021/10/01 13:00:17;;;;;;;3.30;2.50;;;;;;;14.47;100.00;101117.00;5073112;28;20048;-40
2021/10/01 13:02:47;;;;;;;4.95;2.60;;;;;;;14.45;100.00;101112.84;5073034;28;20045;-39
2021/10/01 13:05:20;;;;;;;5.93;2.83;;;;;;;14.47;100.00;101121.78;5073138;28;20075;-34
2021/10/01 13:07:49;;;;;;;4.60;2.72;;;;;;;14.46;100.00;101120.13;5073290;28;20440;-41
2021/10/01 13:10:32;;;;;;;5.38;2.70;;;;;;;14.46;100.00;101125.75;5072230;28;20067;-36
2021/10/01 13:13:04;;;;;;;6.38;2.72;;;;;;;14.41;100.00;101123.03;5073223;28;20098;-42